Impacts TAF Board
For situational awareness. Not to be used for flight planning purposes.
IDs:

KTUL - Tulsa Intl Arpt, OK, US

Issued at 1721 UTC 21 May 2022
Updated at 2159 UTC 21 May 2022
Potential Impact None Slight Moderate High
Time2153Z 21/22Z 21/23Z 22/00Z 22/01Z 22/02Z 22/03Z 22/04Z 22/05Z 22/06Z 22/07Z 22/08Z 22/09Z 22/10Z>>
Type OBS PRVL PRVL PRVL PRVL PRVL PRVL PRVL PRVL PRVL PRVL PRVL PRVL PRVL
VIS 10 >6 >6 >6 >6 >6 >6 >6 >6 >6 >6 >6 >6 >6
CIG 32 15 35 35 35 50 50 50 50 50 50 50 50 50
Cover OVC OVC OVC OVC OVC BKN BKN BKN BKN BKN BKN BKN BKN BKN
FltCat VFR MVFR VFR VFR VFR VFR VFR VFR VFR VFR VFR VFR VFR VFR
WX -- VCSH -- -- -- -- -- -- -- -- -- -- -- --
WDir 10 10 10 10 10 10 10 10 10 10 10 10 10 10
WSpd 14 14 12 12 12 7 7 7 7 7 7 7 7 7
WGst 18 22 20 20 20 -- -- -- -- -- -- -- -- --
WSHgt -- -- -- -- -- -- -- -- -- -- -- -- -- --
WSDir -- -- -- -- -- -- -- -- -- -- -- -- -- --
WSSpd -- -- -- -- -- -- -- -- -- -- -- -- -- --
R08/26
XWnd 14 14 12 12 12 7 7 7 7 7 7 7 7 7
XGst 18 22 20 20 20 -- -- -- -- -- -- -- -- --
HWnd 3 3 2 2 2 1 1 1 1 1 1 1 1 1
HGst 3 4 4 4 4 -- -- -- -- -- -- -- -- --
R18/36
XWnd 2 2 1 1 1 1 1 1 1 1 1 1 1 1
XGst 2 3 2 2 2 -- -- -- -- -- -- -- -- --
HWnd -14 -14 -12 -12 -12 -7 -7 -7 -7 -7 -7 -7 -7 -7
HGst -18 -22 -20 -20 -20 -- -- -- -- -- -- -- -- --
Raw TAF
KTUL 211721Z 2118/2218 01014G22KT P6SM VCSH OVC015
  FM212300 01012G20KT P6SM OVC035
  FM220200 01007KT P6SM BKN050


Raw METAR
KTUL 212153Z 01014G18KT 10SM FEW020 OVC032 17/11 A3007 RMK AO2 SLP178 T01670106
KTUL 212118Z 01012KT 10SM FEW020 SCT027 OVC035 17/11 A3006 RMK AO2 T01670106
KTUL 212053Z 35017KT 10SM FEW020 OVC025 16/10 A3006 RMK AO2 SLP174 T01560100 51013
KTUL 211953Z 35016G23KT 10SM OVC025 16/10 A3004 RMK AO2 SLP169 T01560100
KTUL 211853Z 01017G25KT 10SM OVC025 16/10 A3003 RMK AO2 SLP166 T01560100

METAR Board
Radar Display
Forecast Discussion
For situational awareness. Not to be used for flight planning purposes.